createdAt,value
2018-10-19T00:00:23.841Z,14.10
2018-10-19T00:02:53.307Z,14.10
2018-10-19T00:05:22.871Z,14.10
2018-10-19T00:07:52.200Z,14.00
2018-10-19T00:10:21.460Z,13.90
2018-10-19T00:12:50.772Z,13.90
2018-10-19T00:15:20.113Z,13.90
2018-10-19T00:17:49.391Z,13.80
2018-10-19T00:20:18.695Z,13.80
2018-10-19T00:22:47.988Z,13.80
2018-10-19T00:25:17.297Z,14.00
2018-10-19T00:27:46.599Z,14.00
2018-10-19T00:30:15.942Z,13.90
2018-10-19T00:32:45.203Z,14.00
2018-10-19T00:35:14.580Z,14.10
2018-10-19T00:37:44.618Z,14.40
2018-10-19T00:40:14.380Z,14.40
2018-10-19T00:42:43.633Z,14.40
2018-10-19T00:45:13.028Z,14.40
2018-10-19T00:47:42.551Z,14.40
2018-10-19T00:50:11.825Z,14.40
2018-10-19T00:52:41.188Z,14.30
2018-10-19T00:55:10.465Z,14.20
2018-10-19T00:57:39.729Z,14.10
2018-10-19T01:00:09.545Z,14.10
2018-10-19T01:02:38.972Z,14.30
2018-10-19T01:05:08.381Z,14.40
2018-10-19T01:07:37.639Z,14.30
2018-10-19T01:10:06.932Z,14.30
2018-10-19T01:12:36.445Z,14.30
2018-10-19T01:15:05.959Z,14.20
2018-10-19T01:17:36.073Z,14.10
2018-10-19T01:20:05.911Z,14.20
2018-10-19T01:22:36.033Z,14.20
2018-10-19T01:25:05.814Z,14.20
2018-10-19T01:27:35.683Z,14.10
2018-10-19T01:30:05.849Z,14.10
2018-10-19T01:32:35.396Z,14.00
2018-10-19T01:35:05.190Z,13.90
2018-10-19T01:37:36.463Z,13.80
2018-10-19T01:40:07.657Z,13.80
2018-10-19T01:42:37.592Z,13.80
2018-10-19T01:45:08.194Z,13.70
2018-10-19T01:47:37.625Z,13.70
2018-10-19T01:50:07.566Z,13.70
2018-10-19T01:52:38.157Z,13.70
2018-10-19T01:55:07.472Z,13.70
2018-10-19T01:57:37.309Z,13.70
2018-10-19T02:00:07.089Z,13.70
2018-10-19T02:02:36.588Z,13.70
2018-10-19T02:05:06.270Z,13.80
2018-10-19T02:07:35.912Z,13.80
2018-10-19T02:10:06.350Z,13.70
2018-10-19T02:12:36.049Z,13.60
2018-10-19T02:15:06.533Z,13.60
2018-10-19T02:17:35.889Z,13.60
2018-10-19T02:20:05.258Z,13.50
2018-10-19T02:22:35.509Z,13.50
2018-10-19T02:25:05.252Z,13.50
2018-10-19T02:27:34.624Z,13.50
2018-10-19T02:30:03.939Z,13.50
2018-10-19T02:32:33.460Z,13.50
2018-10-19T02:35:02.960Z,13.50
2018-10-19T02:37:32.153Z,13.50
2018-10-19T02:40:01.438Z,13.50
2018-10-19T02:42:31.461Z,13.50
2018-10-19T02:45:01.259Z,13.40
2018-10-19T02:47:30.502Z,13.40
2018-10-19T02:49:59.773Z,13.30
2018-10-19T02:52:29.029Z,13.30
2018-10-19T02:54:58.285Z,13.20
2018-10-19T02:57:28.071Z,13.10
2018-10-19T02:59:57.317Z,13.00
2018-10-19T03:02:26.609Z,13.00
2018-10-19T03:04:56.353Z,12.90
2018-10-19T03:07:25.822Z,12.90
2018-10-19T03:09:55.073Z,12.80
2018-10-19T03:12:24.368Z,12.80
2018-10-19T03:14:53.667Z,12.70
2018-10-19T03:17:22.971Z,12.80
2018-10-19T03:19:52.232Z,12.80
2018-10-19T03:22:21.494Z,12.80
2018-10-19T03:24:50.901Z,12.80
2018-10-19T03:27:20.490Z,12.70
2018-10-19T03:29:49.754Z,12.70
2018-10-19T03:32:21.288Z,12.60
2018-10-19T03:34:50.637Z,12.60
2018-10-19T03:37:19.884Z,12.60
2018-10-19T03:39:49.260Z,12.60
2018-10-19T03:42:18.512Z,12.60
2018-10-19T03:44:47.810Z,12.50
2018-10-19T03:47:17.855Z,12.50
2018-10-19T03:49:47.026Z,12.50
2018-10-19T03:52:16.262Z,12.50
2018-10-19T03:54:45.529Z,12.50
2018-10-19T03:57:14.901Z,12.50
2018-10-19T03:59:46.374Z,12.50
2018-10-19T04:02:15.650Z,12.40
2018-10-19T04:04:44.898Z,12.40
2018-10-19T04:07:14.448Z,12.40
2018-10-19T04:09:43.704Z,12.40
2018-10-19T04:12:12.948Z,12.40
2018-10-19T04:14:42.301Z,12.30
2018-10-19T04:17:11.619Z,12.30
2018-10-19T04:19:40.796Z,12.30
2018-10-19T04:22:10.081Z,12.30
2018-10-19T04:24:39.621Z,12.30
2018-10-19T04:27:08.904Z,12.30
2018-10-19T04:29:38.637Z,12.20
2018-10-19T04:32:07.918Z,12.20
2018-10-19T04:34:37.410Z,12.20
2018-10-19T04:37:07.397Z,12.20
2018-10-19T04:39:36.726Z,12.20
2018-10-19T04:42:06.302Z,12.10
2018-10-19T04:44:35.489Z,12.10
2018-10-19T04:47:05.139Z,12.10
2018-10-19T04:49:34.665Z,12.00
2018-10-19T04:52:03.993Z,12.00
2018-10-19T04:54:33.249Z,12.00
2018-10-19T04:57:02.534Z,12.00
2018-10-19T04:59:31.827Z,12.00
2018-10-19T05:02:01.348Z,12.00
2018-10-19T05:04:30.925Z,12.10
2018-10-19T05:07:00.217Z,12.20
2018-10-19T05:09:29.508Z,12.20
2018-10-19T05:11:58.848Z,12.20
2018-10-19T05:14:28.337Z,12.10
2018-10-19T05:16:57.619Z,12.10
2018-10-19T05:19:26.829Z,12.10
2018-10-19T05:21:56.153Z,12.20
2018-10-19T05:24:25.821Z,12.10
2018-10-19T05:26:55.263Z,12.00
2018-10-19T05:29:24.871Z,12.00
2018-10-19T05:31:54.255Z,11.90
2018-10-19T05:34:23.514Z,11.90
2018-10-19T05:36:53.169Z,11.90
2018-10-19T05:39:22.590Z,11.80
2018-10-19T05:41:51.913Z,11.80
2018-10-19T05:44:21.188Z,11.80
2018-10-19T05:46:50.648Z,11.80
2018-10-19T05:49:20.021Z,11.80
2018-10-19T05:51:50.101Z,11.80
2018-10-19T05:54:19.324Z,11.70
2018-10-19T05:56:48.589Z,11.80
2018-10-19T05:59:18.333Z,11.70
2018-10-19T06:01:47.596Z,11.70
2018-10-19T06:04:16.940Z,11.70
2018-10-19T06:06:46.234Z,11.80
2018-10-19T06:09:15.597Z,11.80
2018-10-19T06:11:44.849Z,11.70
2018-10-19T06:14:14.772Z,11.70
2018-10-19T06:16:43.939Z,11.70
2018-10-19T06:19:13.216Z,11.60
2018-10-19T06:21:42.852Z,11.70
2018-10-19T06:24:12.254Z,11.70
2018-10-19T06:26:42.517Z,11.70
2018-10-19T06:29:11.890Z,11.70
2018-10-19T06:31:41.257Z,11.70
2018-10-19T06:34:10.521Z,11.70
2018-10-19T06:36:39.988Z,11.60
2018-10-19T06:39:10.885Z,11.70
2018-10-19T06:41:40.300Z,11.80
2018-10-19T06:44:10.000Z,11.80
2018-10-19T06:46:39.270Z,11.90
2018-10-19T06:49:08.526Z,11.90
2018-10-19T06:51:37.878Z,12.00
2018-10-19T06:54:07.797Z,12.00
2018-10-19T06:56:37.082Z,11.90
2018-10-19T06:59:06.467Z,11.90
2018-10-19T07:01:35.655Z,12.00
2018-10-19T07:04:05.246Z,12.10
2018-10-19T07:06:34.864Z,12.20
2018-10-19T07:09:05.229Z,12.20
2018-10-19T07:11:34.874Z,12.10
2018-10-19T07:14:04.259Z,12.10
2018-10-19T07:16:33.501Z,12.10
2018-10-19T07:19:03.055Z,12.10
2018-10-19T07:21:32.307Z,12.10
2018-10-19T07:24:01.626Z,12.20
2018-10-19T07:26:31.059Z,12.30
2018-10-19T07:29:00.508Z,12.40
2018-10-19T07:31:29.757Z,12.50
2018-10-19T07:33:59.104Z,12.50
2018-10-19T07:36:28.424Z,12.50
2018-10-19T07:38:57.605Z,12.50
2018-10-19T07:41:26.865Z,12.50
2018-10-19T07:43:56.492Z,12.40
2018-10-19T07:46:25.932Z,12.40
2018-10-19T07:48:55.479Z,12.50
2018-10-19T07:51:24.854Z,12.60
2018-10-19T07:53:54.501Z,12.70
2018-10-19T07:56:24.413Z,12.80
2018-10-19T07:58:53.743Z,12.80
2018-10-19T08:01:22.997Z,12.90
2018-10-19T08:03:52.317Z,13.00
2018-10-19T08:06:21.589Z,13.00
2018-10-19T08:08:50.849Z,13.10
2018-10-19T08:11:20.620Z,13.20
2018-10-19T08:13:49.865Z,13.30
2018-10-19T08:16:19.159Z,13.30
2018-10-19T08:18:48.452Z,13.40
2018-10-19T08:21:18.061Z,13.50
2018-10-19T08:23:47.453Z,13.60
2018-10-19T08:26:16.808Z,13.60
2018-10-19T08:28:46.180Z,13.70
2018-10-19T08:31:15.444Z,13.80
2018-10-19T08:33:45.003Z,13.90
2018-10-19T08:36:14.429Z,14.00
2018-10-19T08:38:43.768Z,14.10
2018-10-19T08:41:13.118Z,14.20
2018-10-19T08:43:42.315Z,14.30
2018-10-19T08:46:16.929Z,14.40
2018-10-19T08:48:46.149Z,14.40
2018-10-19T08:51:15.461Z,14.50
2018-10-19T08:53:45.283Z,14.60
2018-10-19T08:56:14.545Z,14.70
2018-10-19T08:58:43.989Z,14.80
2018-10-19T09:01:13.303Z,14.90
2018-10-19T09:03:43.550Z,15.00
2018-10-19T09:06:12.919Z,15.10
2018-10-19T09:08:42.190Z,15.20
2018-10-19T09:11:11.530Z,15.30
2018-10-19T09:13:40.868Z,15.50
2018-10-19T09:16:10.785Z,15.60
2018-10-19T09:18:40.321Z,15.70
2018-10-19T09:21:09.572Z,15.80
2018-10-19T09:23:38.842Z,15.90
2018-10-19T09:26:08.266Z,16.10
2018-10-19T09:28:37.537Z,16.30
2018-10-19T09:31:06.864Z,16.50
2018-10-19T09:33:36.116Z,16.70
2018-10-19T09:36:05.568Z,17.10
2018-10-19T09:38:35.136Z,17.60
2018-10-19T09:41:04.612Z,18.00
2018-10-19T09:43:33.821Z,18.30
2018-10-19T09:46:03.124Z,18.60
2018-10-19T09:48:32.369Z,18.90
2018-10-19T09:51:01.700Z,19.30
2018-10-19T09:53:31.548Z,19.50
2018-10-19T09:56:00.849Z,19.50
2018-10-19T09:58:30.129Z,19.70
2018-10-19T10:01:00.410Z,20.00
2018-10-19T10:03:29.706Z,20.30
2018-10-19T10:05:59.230Z,20.50
2018-10-19T10:08:28.777Z,20.70
2018-10-19T10:10:58.035Z,20.80
2018-10-19T10:13:27.312Z,20.90
2018-10-19T10:15:56.609Z,21.20
2018-10-19T10:18:25.908Z,21.40
2018-10-19T10:20:55.236Z,21.50
2018-10-19T10:23:24.911Z,21.40
2018-10-19T10:25:54.150Z,21.60
2018-10-19T10:28:23.443Z,21.90
2018-10-19T10:30:52.787Z,22.20
2018-10-19T10:33:22.024Z,22.50
2018-10-19T10:35:51.273Z,22.70
2018-10-19T10:38:20.656Z,22.90
2018-10-19T10:40:49.920Z,23.00
2018-10-19T10:43:19.185Z,22.90
2018-10-19T10:45:49.124Z,23.00
2018-10-19T10:48:18.425Z,23.40
2018-10-19T10:50:47.688Z,23.60
2018-10-19T10:53:17.049Z,24.00
2018-10-19T10:55:46.325Z,24.20
2018-10-19T10:58:15.652Z,24.40
2018-10-19T11:00:45.031Z,24.60
2018-10-19T11:03:14.620Z,24.70
2018-10-19T11:05:43.870Z,24.90
2018-10-19T11:08:13.668Z,24.70
2018-10-19T11:10:42.997Z,24.40
2018-10-19T11:13:12.317Z,24.50
2018-10-19T11:15:41.564Z,24.60
2018-10-19T11:18:10.833Z,24.60
2018-10-19T11:20:40.241Z,24.30
2018-10-19T11:23:09.794Z,24.20
2018-10-19T11:25:39.079Z,24.50
2018-10-19T11:28:08.422Z,24.50
2018-10-19T11:30:37.963Z,24.10
2018-10-19T11:33:07.246Z,23.80
2018-10-19T11:35:36.513Z,23.70
2018-10-19T11:38:06.005Z,24.00
2018-10-19T11:40:36.336Z,24.10
2018-10-19T11:43:05.970Z,23.90
2018-10-19T11:45:36.132Z,23.70
2018-10-19T11:48:05.456Z,23.40
2018-10-19T11:50:34.924Z,23.00
2018-10-19T11:53:04.753Z,22.70
2018-10-19T11:55:34.180Z,22.50
2018-10-19T11:58:03.740Z,22.30
2018-10-19T12:00:33.076Z,22.30
2018-10-19T12:03:02.416Z,22.20
2018-10-19T12:05:32.367Z,22.20
2018-10-19T12:08:01.676Z,22.10
2018-10-19T12:10:30.964Z,22.00
2018-10-19T12:13:00.248Z,22.00
2018-10-19T12:15:29.908Z,22.00
2018-10-19T12:17:59.380Z,22.00
2018-10-19T12:20:28.681Z,21.90
2018-10-19T12:22:58.219Z,21.80
2018-10-19T12:25:27.504Z,21.80
2018-10-19T12:27:56.781Z,21.80
2018-10-19T12:30:26.325Z,21.80
2018-10-19T12:32:55.799Z,22.20
2018-10-19T12:35:25.553Z,22.60
2018-10-19T12:37:55.241Z,22.80
2018-10-19T12:40:24.492Z,22.90
2018-10-19T12:42:53.838Z,23.00
2018-10-19T12:46:40.189Z,23.10
2018-10-19T12:49:10.711Z,23.40
2018-10-19T12:51:40.252Z,24.50
2018-10-19T12:54:10.328Z,25.10
2018-10-19T12:56:39.565Z,25.30
2018-10-19T12:59:09.091Z,25.00
2018-10-19T13:01:38.617Z,24.90
2018-10-19T13:04:07.917Z,25.40
2018-10-19T13:06:37.742Z,25.90
2018-10-19T13:09:09.368Z,26.10
2018-10-19T13:11:38.625Z,26.00
2018-10-19T13:14:07.885Z,25.60
2018-10-19T13:16:37.734Z,25.20
2018-10-19T13:19:07.388Z,24.80
2018-10-19T13:21:36.667Z,24.40
2018-10-19T13:24:06.297Z,24.00
2018-10-19T13:26:35.596Z,23.70
2018-10-19T13:29:05.638Z,23.50
2018-10-19T13:31:35.409Z,23.20
2018-10-19T13:34:04.675Z,22.90
2018-10-19T13:36:33.969Z,22.70
2018-10-19T13:39:03.895Z,22.60
2018-10-19T13:41:33.256Z,22.50
2018-10-19T13:44:02.486Z,22.40
2018-10-19T13:46:31.767Z,22.30
2018-10-19T13:49:01.115Z,22.30
2018-10-19T13:51:30.751Z,22.40
2018-10-19T13:54:00.060Z,22.70
2018-10-19T13:56:29.316Z,23.00
2018-10-19T13:58:58.621Z,22.90
2018-10-19T14:01:28.266Z,22.80
2018-10-19T14:03:57.824Z,22.50
2018-10-19T14:06:27.115Z,22.30
2018-10-19T14:08:56.538Z,22.10
2018-10-19T14:11:25.791Z,22.00
2018-10-19T14:13:55.048Z,21.90
2018-10-19T14:16:24.380Z,21.80
2018-10-19T14:18:55.017Z,21.80
2018-10-19T14:21:24.292Z,21.80
2018-10-19T14:23:53.982Z,21.90
2018-10-19T14:26:23.249Z,22.10
2018-10-19T14:28:52.549Z,22.30
2018-10-19T14:31:21.826Z,22.50
2018-10-19T14:33:51.113Z,22.60
2018-10-19T14:36:21.576Z,23.00
2018-10-19T14:38:51.241Z,22.90
2018-10-19T14:41:20.514Z,22.90
2018-10-19T14:43:49.836Z,22.80
2018-10-19T14:46:19.183Z,22.70
2018-10-19T14:48:48.919Z,22.50
2018-10-19T14:51:18.337Z,22.40
2018-10-19T14:53:47.803Z,22.40
2018-10-19T14:56:17.507Z,22.30
2018-10-19T14:58:47.022Z,22.10
2018-10-19T15:01:16.352Z,22.00
2018-10-19T15:03:45.977Z,21.90
2018-10-19T15:06:15.334Z,21.90
2018-10-19T15:08:44.953Z,21.80
2018-10-19T15:11:14.542Z,21.70
2018-10-19T15:13:43.476Z,21.60
2018-10-19T15:16:12.744Z,21.40
2018-10-19T15:18:42.101Z,21.40
2018-10-19T15:21:11.456Z,21.30
2018-10-19T15:23:40.924Z,21.30
2018-10-19T15:26:11.516Z,21.20
2018-10-19T15:28:40.767Z,21.10
2018-10-19T15:31:10.102Z,21.10
2018-10-19T15:33:39.625Z,21.10
2018-10-19T15:36:08.893Z,21.00
2018-10-19T15:38:38.437Z,21.10
2018-10-19T15:41:07.993Z,21.00
2018-10-19T15:43:39.498Z,20.90
2018-10-19T15:46:08.743Z,20.80
2018-10-19T15:48:38.061Z,20.70
2018-10-19T15:51:07.700Z,20.60
2018-10-19T15:53:36.924Z,20.50
2018-10-19T15:56:06.267Z,20.40
2018-10-19T15:58:35.555Z,20.30
2018-10-19T16:01:05.046Z,20.20
2018-10-19T16:03:34.340Z,20.10
2018-10-19T16:06:03.979Z,19.90
2018-10-19T16:08:33.460Z,19.80
2018-10-19T16:11:02.938Z,19.70
2018-10-19T16:13:32.242Z,19.60
2018-10-19T16:16:01.557Z,19.40
2018-10-19T16:18:30.860Z,19.30
2018-10-19T16:21:00.280Z,19.10
2018-10-19T16:23:29.495Z,19.10
2018-10-19T16:25:58.809Z,19.00
2018-10-19T16:28:28.208Z,18.80
2018-10-19T16:30:57.725Z,18.70
2018-10-19T16:33:27.110Z,18.70
2018-10-19T16:35:56.593Z,18.50
2018-10-19T16:38:26.025Z,18.50
2018-10-19T16:40:55.541Z,18.40
2018-10-19T16:43:25.138Z,18.30
2018-10-19T16:45:54.417Z,18.20
2018-10-19T16:48:25.889Z,18.10
2018-10-19T16:50:55.209Z,18.00
2018-10-19T16:53:25.726Z,17.90
2018-10-19T16:55:55.193Z,17.90
2018-10-19T16:58:25.825Z,17.70
2018-10-19T17:00:55.506Z,17.70
2018-10-19T17:03:25.206Z,17.60
2018-10-19T17:05:54.713Z,17.50
2018-10-19T17:08:24.311Z,17.50
2018-10-19T17:10:54.005Z,17.40
2018-10-19T17:13:23.542Z,17.30
2018-10-19T17:15:54.562Z,17.30
2018-10-19T17:18:25.176Z,17.20
2018-10-19T17:20:54.730Z,17.20
2018-10-19T17:23:24.033Z,17.20
2018-10-19T17:25:53.409Z,17.10
2018-10-19T17:28:22.709Z,17.10
2018-10-19T17:30:54.170Z,17.00
2018-10-19T17:33:23.868Z,17.00
2018-10-19T17:35:53.395Z,17.00
2018-10-19T17:38:23.037Z,17.00
2018-10-19T17:40:52.374Z,17.00
2018-10-19T17:43:21.787Z,17.00
2018-10-19T17:45:51.282Z,16.90
2018-10-19T17:48:20.797Z,16.80
2018-10-19T17:50:50.486Z,16.80
2018-10-19T17:53:20.348Z,16.80
2018-10-19T17:55:54.788Z,16.70
2018-10-19T17:58:24.306Z,16.60
2018-10-19T18:00:53.593Z,16.50
2018-10-19T18:03:23.044Z,16.40
2018-10-19T18:05:52.396Z,16.30
2018-10-19T18:08:21.616Z,16.30
2018-10-19T18:10:50.904Z,16.20
2018-10-19T18:13:20.177Z,16.10
2018-10-19T18:15:49.416Z,16.10
2018-10-19T18:18:18.664Z,16.00
2018-10-19T18:20:49.576Z,16.10
2018-10-19T18:23:19.132Z,16.10
2018-10-19T18:25:49.177Z,16.10
2018-10-19T18:28:18.549Z,15.90
2018-10-19T18:30:47.812Z,15.90
2018-10-19T18:33:17.197Z,15.90
2018-10-19T18:35:46.470Z,15.80
2018-10-19T18:38:15.798Z,15.70
2018-10-19T18:40:45.330Z,15.70
2018-10-19T18:43:15.424Z,15.80
2018-10-19T18:45:44.704Z,15.80
2018-10-19T18:48:14.139Z,15.80
2018-10-19T18:50:43.503Z,15.70
2018-10-19T18:53:12.887Z,15.60
2018-10-19T18:55:42.316Z,15.50
2018-10-19T18:58:11.597Z,15.50
2018-10-19T19:00:40.871Z,15.40
2018-10-19T19:03:10.644Z,15.40
2018-10-19T19:05:40.009Z,15.30
2018-10-19T19:08:09.795Z,15.30
2018-10-19T19:10:39.384Z,15.20
2018-10-19T19:14:15.343Z,15.20
2018-10-19T19:16:44.617Z,15.10
2018-10-19T19:19:15.189Z,15.10
2018-10-19T19:21:45.284Z,15.00
2018-10-19T19:24:19.789Z,15.00
2018-10-19T19:26:50.161Z,14.90
2018-10-19T19:29:19.857Z,14.90
2018-10-19T19:31:49.108Z,15.00
2018-10-19T19:34:20.289Z,15.00
2018-10-19T19:36:49.561Z,15.10
2018-10-19T19:39:18.826Z,15.00
2018-10-19T19:41:53.765Z,15.00
2018-10-19T19:44:23.341Z,15.00
2018-10-19T19:46:52.980Z,14.90
2018-10-19T19:49:28.761Z,14.90
2018-10-19T19:51:57.972Z,15.00
2018-10-19T19:54:27.236Z,14.90
2018-10-19T19:56:57.441Z,14.80
2018-10-19T19:59:26.725Z,14.70
2018-10-19T20:01:56.142Z,14.60
2018-10-19T20:04:25.565Z,14.60
2018-10-19T20:06:55.161Z,14.50
2018-10-19T20:09:24.436Z,14.50
2018-10-19T20:11:54.767Z,14.40
2018-10-19T20:14:24.349Z,14.30
2018-10-19T20:16:53.721Z,14.30
2018-10-19T20:19:24.502Z,14.30
2018-10-19T20:21:53.890Z,14.30
2018-10-19T20:24:23.415Z,14.20
2018-10-19T20:26:52.746Z,14.20
2018-10-19T20:29:22.327Z,14.20
2018-10-19T20:31:51.707Z,14.10
2018-10-19T20:34:21.336Z,14.10
2018-10-19T20:36:53.615Z,14.10
2018-10-19T20:39:23.448Z,14.10
2018-10-19T20:41:52.843Z,14.00
2018-10-19T20:44:22.440Z,13.90
2018-10-19T20:46:51.770Z,13.90
2018-10-19T20:49:21.050Z,13.90
2018-10-19T20:51:50.675Z,13.80
2018-10-19T20:54:19.988Z,13.80
2018-10-19T20:56:49.280Z,13.90
2018-10-19T20:59:18.555Z,14.00
2018-10-19T21:01:48.304Z,14.10
2018-10-19T21:04:17.576Z,14.10
2018-10-19T21:06:46.894Z,14.20
2018-10-19T21:09:16.185Z,14.30
2018-10-19T21:11:45.669Z,14.30
2018-10-19T21:14:15.259Z,14.30
2018-10-19T21:16:44.553Z,14.20
2018-10-19T21:19:13.829Z,14.20
2018-10-19T21:21:44.127Z,14.30
2018-10-19T21:24:14.526Z,14.30
2018-10-19T21:26:43.937Z,14.30
2018-10-19T21:29:13.201Z,14.30
2018-10-19T21:31:42.734Z,14.40
2018-10-19T21:34:12.048Z,14.40
2018-10-19T21:36:41.301Z,14.40
2018-10-19T21:39:11.953Z,14.40
2018-10-19T21:41:41.341Z,14.50
2018-10-19T21:44:10.891Z,14.50
2018-10-19T21:46:40.850Z,14.40
2018-10-19T21:49:10.073Z,14.40
2018-10-19T21:51:39.400Z,14.40
2018-10-19T21:54:08.633Z,14.40
2018-10-19T21:56:38.263Z,14.40
2018-10-19T21:59:07.606Z,14.50
2018-10-19T22:01:36.910Z,14.50
2018-10-19T22:04:06.549Z,14.40
2018-10-19T22:06:36.121Z,14.40
2018-10-19T22:09:08.700Z,14.40
2018-10-19T22:11:38.587Z,14.40
2018-10-19T22:14:08.976Z,14.40
2018-10-19T22:16:39.096Z,14.40
2018-10-19T22:19:09.468Z,14.40
2018-10-19T22:21:39.113Z,14.40
2018-10-19T22:24:09.419Z,14.40
2018-10-19T22:26:39.010Z,14.40
2018-10-19T22:29:09.020Z,14.50
2018-10-19T22:31:38.256Z,14.50
2018-10-19T22:34:07.529Z,14.40
2018-10-19T22:36:36.819Z,14.50
2018-10-19T22:39:07.392Z,14.40
2018-10-19T22:41:37.200Z,14.40
2018-10-19T22:44:06.501Z,14.40
2018-10-19T22:46:35.772Z,14.40
2018-10-19T22:49:05.643Z,14.40
2018-10-19T22:51:34.840Z,14.40
2018-10-19T22:54:04.206Z,14.40
2018-10-19T22:56:33.820Z,14.40
2018-10-19T22:59:03.202Z,14.40
2018-10-19T23:01:32.691Z,14.40
2018-10-19T23:04:02.345Z,14.40
2018-10-19T23:06:31.617Z,14.50
2018-10-19T23:09:00.940Z,14.40
2018-10-19T23:11:30.733Z,14.40
2018-10-19T23:14:00.044Z,14.40
2018-10-19T23:16:29.788Z,14.40
2018-10-19T23:19:01.911Z,14.40
2018-10-19T23:21:31.051Z,14.40
2018-10-19T23:24:00.351Z,14.40
2018-10-19T23:26:29.712Z,14.30
2018-10-19T23:28:58.955Z,14.30
2018-10-19T23:31:28.272Z,14.30
2018-10-19T23:33:57.567Z,14.20
2018-10-19T23:36:26.908Z,14.20
2018-10-19T23:38:56.105Z,14.20
2018-10-19T23:41:25.347Z,14.20
2018-10-19T23:43:54.610Z,14.10
2018-10-19T23:46:23.707Z,14.10
2018-10-19T23:48:53.001Z,14.10
2018-10-19T23:51:22.204Z,14.00
2018-10-19T23:53:51.404Z,14.00
2018-10-19T23:56:20.923Z,13.90
2018-10-19T23:58:50.406Z,13.90
